Terminal Aerodrome Forecast
Issued by NWS Amarillo, TX

Home | Current Version | Previous Version | Text Only | Print | Product List | Glossary On
Versions: 1 2 3 4 5 6 7 8 9 10 11 12 13 14 15 16 17 18 19 20 21 22 23 24
113
FTUS44 KAMA 271120
TAFAMA
TAF
KAMA 271120Z 2712/2812 24008KT P6SM BKN300
     FM280100 20008KT P6SM SCT300=

USA.gov is the U.S. government's official web portal to all federal, state and local government web resources and services.